PPW weather

Papa Westray Airport
Papa Westray, Scotland, United Kingdom

Public forecast

Using degrees Celsius for public forecast. Weather courtesy of forecast.io.

METAR (pilot weather report)

Closest report is Kirkwall Airport, 23.7 nm (43.8 km) S. Retrieved 2019/05/23 11:20 UTC (0 seconds ago):

EGPA 231120Z 29020KT 9999 -RA FEW005 SCT009 BKN015 09/07 Q1006

TAF (pilot weather forecast)

Forecast is more than 12 hours old.

Closest forecast is Scatsta Airport, 80.9 nm (149.8 km) NE. Retrieved 2013/04/29 03:39 UTC (6 years ago):

TAF TAF EGPM 290337Z 2903/2915 22005KT 9999 SCT030 PROB30 TEMPO 2903/2906 7000 SHRAGS BECMG 2906/2909 32015KT PROB40 TEMPO 2906/2915 6000 SHRA SHGS BKN012CB